Saxnaes, Sweden

8:18 AM CEST on July 28, 2015 (GMT +0200)
Hemavan | | Change Station
CLOSE
Current Station
Personal Weather Station
Location: Hemavan, HEMAVAN
Elevation: 1617 ft
Nearby Weather Stations

Elev 1617 ft 65.81 °N, 15.11 °E | Updated 3 minutes ago

Clear
Clear
50.2 °F
Feels Like 50.2 °F
N
2.0
Wind Variable Wind from SSE
Gusts 3.0 mph

Today
High -- | Low -- °F
--% Chance of Precip.
Yesterday
High -- | Low -- °F
Precip. -- in
3:33 AM 10:33 PM
Waxing Gibbous, 87% visible
Pressure 29.56 in
Visibility 6.2 miles
Clouds
Dew Point 45 °F
Humidity 81%
Rainfall 0.00 in
Snow Depth Not available.
UV 1.0 out of 12
Pollen Not available.
Air Quality Not available.
Flu Activity Not available.
METAR ESUT 280550Z AUTO 15010KT 9999 NCD 11/06 Q1001

More Conditions Fewer Conditions

Pressure 29.56 in
Visibility 6.2 miles
Clouds
Dew Point 45 °F
Humidity 81%
Rainfall 0.00 in
Snow Depth Not available.
UV 1.0 out of 12
Pollen Not available.
Air Quality Not available.
Flu Activity Not available.
METAR ESUT 280550Z AUTO 15010KT 9999 NCD 11/06 Q1001

More Conditions Fewer Conditions

10-Day Weather Forecast

×

Almanac

Astronomy

Jul. 28, 2015 Rise Set
Actual Time
Civil Twilight
Nautical Twilight
Astronomical Twilight
Moon
Length of Visible Light
Length of Day
Tomorrow will be .
, % of the Moon is Illuminated

Today's Extremes

Country Highs Country Lows

Community

WunderPhotos

Upload Photos

1,841,796 photos uploaded!

WunderBlogs® & News

Nearby

Air Quality

  Air Quality AQ Index Pollutant
Not available.

Snow Depth

Station Depth Elevation

Earthquake Activity

City Distance Mag. Time & Date
Minimum magnitude displayed is 2.5.

Coastal Water Temperatures

Place Temperature

Stations

Nearby Weather Stations

Station Location Temp. Windchill Dew Point Humidity Wind Precip. Elev Updated Type